Time;durP1;ratioP1;P1;durP2;ratioP2;P2;SDS_P1;SDS_P2;PMS_P1;PMS_P2;Temp;Humidity;BMP_temperature;BMP_pressure;BME280_temperature;BME280_humidity;BME280_pressure;Samples;Min_cycle;Max_cycle;Signal;HPM_P1;HPM_P2
2021/03/30 00:01:49;;;;;;;10.18;4.40;;;8.20;96.60;;;;;;5087553;28;20389;-72
2021/03/30 00:04:14;;;;;;;9.30;3.92;;;8.20;96.50;;;;;;5090055;28;20762;-72
2021/03/30 00:06:40;;;;;;;9.43;4.50;;;8.10;96.90;;;;;;5088459;28;20394;-62
2021/03/30 00:09:09;;;;;;;10.40;4.43;;;8.20;98.50;;;;;;5088588;28;20398;-72
2021/03/30 00:11:35;;;;;;;13.73;4.60;;;7.90;99.90;;;;;;5089731;28;20362;-72
2021/03/30 00:14:01;;;;;;;8.60;4.20;;;7.80;99.90;;;;;;5088312;28;20653;-72
2021/03/30 00:16:26;;;;;;;9.52;4.30;;;7.80;99.90;;;;;;5088385;28;20871;-72
2021/03/30 00:18:52;;;;;;;9.77;4.60;;;7.70;99.90;;;;;;5087332;28;20414;-73
2021/03/30 00:21:17;;;;;;;9.88;4.63;;;7.70;99.90;;;;;;5089174;28;20469;-73
2021/03/30 00:23:43;;;;;;;13.53;4.30;;;7.80;99.90;;;;;;5088787;28;20394;-68
2021/03/30 00:26:09;;;;;;;9.80;4.70;;;7.70;99.90;;;;;;5070335;28;20398;-72
2021/03/30 00:28:35;;;;;;;14.63;5.00;;;7.70;99.90;;;;;;5089266;28;20405;-71
2021/03/30 00:31:01;;;;;;;10.90;4.55;;;7.80;99.90;;;;;;5087105;28;20863;-72
2021/03/30 00:33:26;;;;;;;8.63;4.23;;;7.90;99.60;;;;;;5088332;28;20422;-72
2021/03/30 00:35:52;;;;;;;10.48;4.30;;;7.90;99.70;;;;;;5087752;28;20374;-72
2021/03/30 00:38:18;;;;;;;8.10;4.33;;;8.00;99.50;;;;;;5088176;28;20410;-73
2021/03/30 00:40:43;;;;;;;14.25;5.07;;;8.00;99.80;;;;;;5089110;28;20385;-71
2021/03/30 00:43:09;;;;;;;11.13;5.20;;;8.10;99.20;;;;;;5087495;28;20511;-72
2021/03/30 00:45:35;;;;;;;10.75;4.43;;;8.00;99.20;;;;;;5088570;28;20469;-65
2021/03/30 00:48:00;;;;;;;10.30;4.70;;;8.10;99.30;;;;;;5087151;28;20428;-72
2021/03/30 00:50:32;;;;;;;11.82;5.55;;;8.00;99.30;;;;;;5088753;28;20381;-73
2021/03/30 00:53:00;;;;;;;11.90;5.47;;;7.80;99.90;;;;;;5087255;28;20948;-73
2021/03/30 00:55:25;;;;;;;11.50;5.00;;;7.90;99.90;;;;;;5088824;28;20856;-72
2021/03/30 00:57:52;;;;;;;10.20;4.80;;;7.80;99.90;;;;;;5087364;28;20432;-73
2021/03/30 01:00:18;;;;;;;10.73;4.95;;;7.80;99.90;;;;;;5087861;28;20389;-70
2021/03/30 01:02:44;;;;;;;10.73;4.63;;;7.90;99.90;;;;;;5070191;28;20443;-73
2021/03/30 01:05:11;;;;;;;9.20;4.50;;;7.90;99.90;;;;;;5087801;28;20382;-73
2021/03/30 01:07:42;;;;;;;9.13;5.03;;;7.90;99.90;;;;;;5074376;28;20884;-73
2021/03/30 01:10:29;;;;;;;11.80;4.80;;;7.90;99.70;;;;;;5092999;28;20374;-73
2021/03/30 01:13:20;;;;;;;10.02;4.25;;;8.00;98.70;;;;;;5090397;28;20527;-73
2021/03/30 01:16:14;;;;;;;11.93;4.57;;;8.10;97.50;;;;;;5077837;28;20433;-68
2021/03/30 01:19:02;;;;;;;12.73;5.00;;;8.30;97.00;;;;;;5090148;28;20401;-68
2021/03/30 01:21:49;;;;;;;11.43;4.80;;;8.40;96.80;;;;;;5091334;28;20473;-73
2021/03/30 01:24:25;;;;;;;10.23;4.70;;;8.40;97.00;;;;;;5092342;28;20457;-74
2021/03/30 01:27:00;;;;;;;11.43;5.13;;;8.20;98.00;;;;;;5090727;28;20800;-74
2021/03/30 01:29:38;;;;;;;9.52;5.35;;;8.00;98.50;;;;;;5092420;28;20386;-73
2021/03/30 01:32:09;;;;;;;12.15;4.90;;;8.00;98.60;;;;;;5090505;28;20398;-73
2021/03/30 01:34:36;;;;;;;12.15;5.50;;;7.90;99.40;;;;;;5092385;28;20386;-72
2021/03/30 01:37:03;;;;;;;10.27;5.25;;;7.90;99.90;;;;;;5090094;28;20478;-74
2021/03/30 01:39:30;;;;;;;9.40;5.20;;;7.90;99.90;;;;;;5074171;28;20402;-73
2021/03/30 01:41:56;;;;;;;10.80;5.25;;;7.90;99.90;;;;;;5089596;28;20455;-72
2021/03/30 01:44:25;;;;;;;9.63;5.30;;;7.70;99.90;;;;;;5091989;28;20381;-74
2021/03/30 01:46:53;;;;;;;11.93;4.90;;;7.70;99.90;;;;;;5089812;28;20918;-71
2021/03/30 01:49:21;;;;;;;12.65;5.32;;;7.60;99.90;;;;;;5092333;28;20447;-70
2021/03/30 01:51:47;;;;;;;8.52;4.63;;;7.60;99.90;;;;;;5089610;28;20390;-74
2021/03/30 01:54:15;;;;;;;11.07;4.80;;;7.50;99.90;;;;;;5073756;28;20434;-74
2021/03/30 01:56:41;;;;;;;10.18;5.10;;;7.50;99.90;;;;;;5090800;28;20410;-63
2021/03/30 01:59:10;;;;;;;9.05;5.38;;;7.20;99.90;;;;;;5090976;28;20417;-73
2021/03/30 02:01:37;;;;;;;10.00;5.70;;;7.20;99.90;;;;;;5091774;28;20451;-74
2021/03/30 02:04:04;;;;;;;12.07;5.90;;;7.10;99.90;;;;;;5090061;28;20566;-73
2021/03/30 02:06:33;;;;;;;10.25;4.80;;;7.20;99.90;;;;;;5091737;28;20485;-74
2021/03/30 02:09:03;;;;;;;12.35;5.57;;;7.30;99.90;;;;;;5089594;28;20412;-74
2021/03/30 02:11:34;;;;;;;11.18;5.45;;;7.30;99.90;;;;;;5091988;28;20402;-71
2021/03/30 02:14:00;;;;;;;11.50;5.40;;;7.20;99.90;;;;;;5091123;28;20531;-73
2021/03/30 02:16:30;;;;;;;10.20;4.93;;;7.20;99.90;;;;;;5090156;28;20429;-74
2021/03/30 02:19:17;;;;;;;9.70;5.25;;;7.20;99.90;;;;;;5090349;28;20567;-72
2021/03/30 02:21:56;;;;;;;12.57;5.32;;;7.20;99.90;;;;;;5089857;28;20400;-64
2021/03/30 02:24:22;;;;;;;13.43;6.07;;;7.10;99.90;;;;;;5090833;28;20391;-74
2021/03/30 02:26:50;;;;;;;12.50;5.97;;;7.20;99.90;;;;;;5089397;28;20431;-74
2021/03/30 02:29:24;;;;;;;12.47;6.80;;;7.10;99.90;;;;;;5090355;28;20397;-74
2021/03/30 02:31:52;;;;;;;12.77;6.60;;;7.10;99.90;;;;;;5090538;28;20370;-74
2021/03/30 02:34:18;;;;;;;13.02;7.45;;;7.00;99.90;;;;;;5090267;28;20459;-73
2021/03/30 02:36:51;;;;;;;14.63;6.80;;;6.90;99.90;;;;;;5090460;28;20385;-62
2021/03/30 02:39:19;;;;;;;10.07;6.22;;;6.90;99.90;;;;;;5091308;28;20413;-74
2021/03/30 02:41:48;;;;;;;11.90;6.10;;;6.90;99.90;;;;;;5089603;28;20744;-62
2021/03/30 02:44:15;;;;;;;12.85;6.53;;;6.70;99.90;;;;;;5091088;28;20385;-75
2021/03/30 02:46:44;;;;;;;11.52;6.15;;;6.80;99.90;;;;;;5089586;28;20483;-74
2021/03/30 02:49:15;;;;;;;11.43;6.20;;;6.80;99.90;;;;;;5090588;28;20374;-74
2021/03/30 02:51:43;;;;;;;10.27;5.50;;;6.90;99.90;;;;;;5089834;28;20405;-73
2021/03/30 02:54:09;;;;;;;12.70;6.50;;;6.90;99.90;;;;;;5089966;28;20374;-75
2021/03/30 02:56:36;;;;;;;12.48;6.40;;;6.90;99.90;;;;;;5089461;28;20929;-75
2021/03/30 02:59:02;;;;;;;12.60;5.90;;;7.00;99.90;;;;;;5089590;28;20902;-75
2021/03/30 03:01:30;;;;;;;13.80;6.20;;;6.90;99.90;;;;;;5089123;28;20396;-74
2021/03/30 03:03:56;;;;;;;10.77;6.15;;;6.90;99.90;;;;;;5089962;28;20374;-75
2021/03/30 03:06:21;;;;;;;12.00;7.07;;;6.80;99.90;;;;;;5089984;28;20424;-74
2021/03/30 03:08:51;;;;;;;11.07;5.70;;;6.80;99.90;;;;;;5088988;28;20955;-74
2021/03/30 03:11:17;;;;;;;11.70;6.50;;;6.80;99.90;;;;;;5090251;28;20370;-75
2021/03/30 03:13:46;;;;;;;13.93;6.72;;;6.70;99.90;;;;;;5086806;28;20389;-70
2021/03/30 03:16:13;;;;;;;13.40;6.60;;;6.60;99.90;;;;;;5090723;28;20394;-75
2021/03/30 03:18:41;;;;;;;13.77;6.82;;;6.60;99.90;;;;;;5090078;28;20425;-74
2021/03/30 03:21:10;;;;;;;12.13;6.32;;;6.50;99.90;;;;;;5070802;28;20390;-75
2021/03/30 03:23:41;;;;;;;11.68;6.00;;;6.60;99.90;;;;;;5091139;28;20840;-74
2021/03/30 03:26:14;;;;;;;13.38;6.40;;;6.60;99.90;;;;;;5088716;28;20406;-75
2021/03/30 03:28:43;;;;;;;12.13;6.10;;;6.50;99.90;;;;;;5064306;28;20392;-73
2021/03/30 03:31:10;;;;;;;11.75;6.20;;;6.50;99.90;;;;;;5076930;28;20539;-73
2021/03/30 03:33:36;;;;;;;13.85;6.20;;;6.40;99.90;;;;;;5090083;28;20432;-74
2021/03/30 03:36:10;;;;;;;12.80;6.10;;;6.20;99.90;;;;;;5088861;28;20395;-74
2021/03/30 03:38:41;;;;;;;13.93;7.22;;;6.10;99.90;;;;;;5090156;28;20398;-73
2021/03/30 03:41:09;;;;;;;13.48;6.50;;;6.00;99.90;;;;;;5087974;28;20378;-69
2021/03/30 03:43:35;;;;;;;13.50;6.40;;;6.00;99.90;;;;;;5089704;28;20375;-72
2021/03/30 03:46:01;;;;;;;13.90;6.60;;;6.00;99.90;;;;;;5088775;28;20386;-76
2021/03/30 03:48:27;;;;;;;17.40;7.05;;;5.90;99.90;;;;;;5088891;28;20398;-66
2021/03/30 03:50:57;;;;;;;13.45;6.85;;;5.90;99.90;;;;;;5071003;28;20482;-75
2021/03/30 03:53:25;;;;;;;17.55;6.50;;;5.90;99.90;;;;;;5089114;28;20382;-73
2021/03/30 03:55:52;;;;;;;14.98;6.72;;;5.90;99.90;;;;;;5088299;28;20401;-75
2021/03/30 03:58:23;;;;;;;16.17;6.80;;;6.00;99.90;;;;;;5071844;28;20469;-76
2021/03/30 04:00:49;;;;;;;17.52;6.65;;;6.10;99.90;;;;;;5087789;28;20390;-75
2021/03/30 04:03:28;;;;;;;12.15;5.97;;;6.20;99.90;;;;;;5089005;28;20888;-77
2021/03/30 04:06:05;;;;;;;11.75;6.47;;;7.40;99.90;;;;;;5070252;28;20413;-70
2021/03/30 04:08:33;;;;;;;14.23;6.68;;;6.20;99.90;;;;;;5088834;28;20390;-75
2021/03/30 04:11:03;;;;;;;11.18;6.50;;;6.20;99.90;;;;;;5088800;28;20382;-73
2021/03/30 04:13:31;;;;;;;12.13;6.53;;;6.10;99.90;;;;;;5088745;28;20431;-73
2021/03/30 04:16:02;;;;;;;14.82;6.22;;;6.00;99.90;;;;;;5088782;28;20431;-75
2021/03/30 04:18:31;;;;;;;16.33;8.60;;;6.00;99.90;;;;;;5070521;28;20506;-75
2021/03/30 04:21:03;;;;;;;12.93;6.70;;;5.90;99.90;;;;;;5087732;28;20775;-74
2021/03/30 04:23:30;;;;;;;17.67;6.90;;;5.90;99.90;;;;;;5088139;28;20394;-76
2021/03/30 04:25:56;;;;;;;14.55;7.03;;;5.80;99.90;;;;;;5088880;28;20396;-77
2021/03/30 04:28:21;;;;;;;12.45;6.50;;;5.70;99.90;;;;;;5088614;28;20791;-73
2021/03/30 04:30:47;;;;;;;19.87;6.93;;;5.60;99.90;;;;;;5089161;28;20385;-74
2021/03/30 04:33:13;;;;;;;11.55;6.60;;;5.50;99.90;;;;;;5088489;28;20829;-71
2021/03/30 04:35:39;;;;;;;13.18;7.18;;;5.50;99.90;;;;;;5089487;28;20364;-74
2021/03/30 04:38:04;;;;;;;12.60;6.47;;;5.50;99.90;;;;;;5087232;28;20410;-71
2021/03/30 04:40:30;;;;;;;14.47;7.40;;;5.50;99.90;;;;;;5092101;28;20374;-73
2021/03/30 04:42:56;;;;;;;13.52;6.65;;;6.90;99.90;;;;;;5091339;28;20470;-73
2021/03/30 04:45:22;;;;;;;15.32;7.50;;;5.50;99.90;;;;;;5093085;28;20382;-61
2021/03/30 04:47:47;;;;;;;12.30;6.80;;;5.50;99.90;;;;;;5091716;28;20492;-74
2021/03/30 04:50:13;;;;;;;12.07;5.82;;;5.50;99.90;;;;;;5093184;28;20396;-73
2021/03/30 04:52:39;;;;;;;15.02;6.88;;;5.50;99.90;;;;;;5091869;28;20433;-72
2021/03/30 04:55:06;;;;;;;20.07;6.47;;;6.30;99.90;;;;;;5092606;28;20432;-74
2021/03/30 04:57:32;;;;;;;11.27;6.00;;;5.70;99.90;;;;;;5093001;28;20427;-73
2021/03/30 04:59:57;;;;;;;12.60;6.78;;;5.60;99.90;;;;;;5090619;28;20468;-73
2021/03/30 05:02:23;;;;;;;12.90;6.73;;;5.60;99.90;;;;;;5092580;28;20774;-74
2021/03/30 05:04:49;;;;;;;12.98;7.00;;;5.60;99.90;;;;;;5091767;28;20381;-61
2021/03/30 05:07:16;;;;;;;14.48;7.40;;;5.60;99.90;;;;;;5092001;28;20394;-74
2021/03/30 05:09:41;;;;;;;14.10;6.80;;;5.70;99.90;;;;;;5092707;28;20508;-74
2021/03/30 05:12:07;;;;;;;14.23;7.05;;;5.70;99.90;;;;;;5091486;28;20482;-74
2021/03/30 05:14:33;;;;;;;16.80;8.00;;;5.70;99.90;;;;;;5092738;28;20398;-74
2021/03/30 05:16:59;;;;;;;11.65;6.60;;;5.70;99.90;;;;;;5091132;28;20386;-74
2021/03/30 05:19:24;;;;;;;12.60;6.90;;;5.60;99.90;;;;;;5092718;28;20727;-74
2021/03/30 05:21:50;;;;;;;13.52;7.43;;;5.70;99.90;;;;;;5090513;28;20485;-73
2021/03/30 05:24:16;;;;;;;11.90;6.90;;;5.80;99.90;;;;;;5092218;28;20383;-74
2021/03/30 05:26:42;;;;;;;14.07;7.33;;;6.20;99.90;;;;;;5073209;28;20984;-74
2021/03/30 05:29:08;;;;;;;10.90;6.30;;;6.10;99.90;;;;;;5091884;28;20390;-74
2021/03/30 05:31:34;;;;;;;17.10;6.75;;;6.30;99.90;;;;;;5092683;28;21021;-74
2021/03/30 05:33:59;;;;;;;13.45;7.38;;;6.30;99.90;;;;;;5090461;28;20481;-75
2021/03/30 05:36:25;;;;;;;14.63;6.80;;;6.30;99.90;;;;;;5092982;28;20390;-75
2021/03/30 05:38:51;;;;;;;14.13;6.63;;;6.40;99.90;;;;;;5072151;28;20888;-74
2021/03/30 05:41:17;;;;;;;18.45;7.28;;;7.20;99.90;;;;;;5092695;28;20378;-74
2021/03/30 05:43:44;;;;;;;13.20;6.75;;;6.80;99.90;;;;;;5092162;28;20370;-73
2021/03/30 05:46:10;;;;;;;11.77;6.80;;;7.20;99.90;;;;;;5072562;28;20386;-75
2021/03/30 05:48:38;;;;;;;16.33;7.10;;;7.80;99.90;;;;;;5092164;28;20386;-73
2021/03/30 05:51:03;;;;;;;13.57;6.40;;;8.50;99.90;;;;;;5089340;28;20460;-71
2021/03/30 05:53:31;;;;;;;14.40;6.67;;;8.90;99.90;;;;;;5092945;28;20370;-75
2021/03/30 05:56:00;;;;;;;12.68;6.90;;;9.30;99.90;;;;;;5082320;28;21062;-74
2021/03/30 05:58:29;;;;;;;18.73;6.47;;;9.60;99.90;;;;;;5065492;28;20507;-75
2021/03/30 06:00:58;;;;;;;10.95;6.60;;;9.90;99.90;;;;;;5084279;28;20392;-75
2021/03/30 06:03:26;;;;;;;15.05;6.90;;;10.30;99.90;;;;;;5088954;28;20386;-76
2021/03/30 06:05:57;;;;;;;10.93;6.80;;;10.80;99.90;;;;;;5078837;28;20423;-75
2021/03/30 06:08:24;;;;;;;16.48;7.10;;;11.30;99.90;;;;;;5091397;28;20394;-75
2021/03/30 06:10:56;;;;;;;15.10;7.03;;;11.60;99.90;;;;;;5089740;28;20389;-74
2021/03/30 06:13:45;;;;;;;12.15;7.20;;;12.00;99.90;;;;;;5070147;28;20477;-76
2021/03/30 06:16:32;;;;;;;16.95;7.70;;;12.90;99.90;;;;;;5089430;28;20470;-66
2021/03/30 06:19:17;;;;;;;13.53;6.77;;;14.00;98.60;;;;;;5087188;28;20472;-76
2021/03/30 06:21:58;;;;;;;13.85;7.50;;;15.50;95.00;;;;;;5091753;28;20378;-78
2021/03/30 06:24:24;;;;;;;12.60;7.17;;;16.30;91.10;;;;;;5089993;28;20390;-80
2021/03/30 06:26:53;;;;;;;11.45;7.22;;;17.10;86.00;;;;;;5090337;28;20393;-64
2021/03/30 06:29:36;;;;;;;15.18;6.55;;;17.20;81.20;;;;;;5091343;28;20391;-79
2021/03/30 06:32:03;;;;;;;14.67;7.37;;;17.00;81.30;;;;;;5088170;28;20411;-71
2021/03/30 06:34:30;;;;;;;13.60;6.78;;;17.00;79.90;;;;;;5073350;28;20386;-79
2021/03/30 06:36:56;;;;;;;15.38;7.70;;;17.30;77.80;;;;;;5089799;28;20366;-79
2021/03/30 06:39:37;;;;;;;13.70;7.00;;;17.80;76.30;;;;;;5072447;28;20775;-76
2021/03/30 06:42:19;;;;;;;12.60;7.32;;;18.90;71.00;;;;;;5058915;28;20407;-77
2021/03/30 06:44:50;;;;;;;14.93;6.80;;;18.60;70.80;;;;;;5091720;28;20469;-79
2021/03/30 06:47:19;;;;;;;13.00;7.15;;;18.90;67.20;;;;;;5090647;28;20737;-74
2021/03/30 06:49:51;;;;;;;11.48;7.53;;;18.80;65.90;;;;;;5071687;28;20441;-74
2021/03/30 06:52:24;;;;;;;15.05;7.45;;;19.00;65.80;;;;;;5090334;28;20904;-74
2021/03/30 06:54:51;;;;;;;14.45;7.60;;;18.60;65.50;;;;;;5089385;28;20386;-63
2021/03/30 06:57:50;;;;;;;12.95;7.10;;;18.90;64.30;;;;;;5070557;28;20996;-65
2021/03/30 07:00:20;;;;;;;13.18;7.93;;;19.60;63.60;;;;;;5025517;28;20537;-70
2021/03/30 07:02:52;;;;;;;14.70;7.28;;;20.20;61.50;;;;;;5069489;28;20826;-69
2021/03/30 07:05:34;;;;;;;12.00;7.40;;;21.40;58.20;;;;;;5086958;28;20424;-74
2021/03/30 07:08:02;;;;;;;11.57;6.85;;;21.80;56.10;;;;;;5051805;28;20447;-68
2021/03/30 07:10:29;;;;;;;10.93;7.10;;;22.10;55.20;;;;;;5081739;28;20393;-68
2021/03/30 07:12:56;;;;;;;14.23;7.60;;;21.90;54.30;;;;;;5089252;28;20378;-70
2021/03/30 07:15:24;;;;;;;12.73;7.10;;;22.20;54.10;;;;;;5089105;28;20579;-70
2021/03/30 07:18:15;;;;;;;12.40;6.88;;;22.30;53.80;;;;;;5071577;28;20412;-63
2021/03/30 07:20:50;;;;;;;11.10;7.00;;;21.80;52.60;;;;;;5038108;28;20386;-71
2021/03/30 07:23:22;;;;;;;14.73;7.50;;;22.00;52.20;;;;;;5071151;28;20398;-68
2021/03/30 07:26:19;;;;;;;12.00;7.28;;;21.90;52.40;;;;;;5089934;28;20435;-61
2021/03/30 07:28:52;;;;;;;14.77;7.20;;;21.80;52.30;;;;;;5088265;28;20409;-68
2021/03/30 07:31:40;;;;;;;14.68;7.68;;;22.30;52.10;;;;;;5090189;28;20410;-67
2021/03/30 07:34:10;;;;;;;12.55;7.68;;;22.90;50.00;;;;;;5088301;28;20985;-68
2021/03/30 07:37:00;;;;;;;14.83;7.23;;;22.50;50.60;;;;;;5090002;28;20381;-68
2021/03/30 07:39:31;;;;;;;13.85;7.25;;;22.60;50.50;;;;;;5088374;28;20452;-70
2021/03/30 07:41:57;;;;;;;13.75;7.63;;;23.00;49.20;;;;;;5088959;28;20378;-69
2021/03/30 07:44:24;;;;;;;10.52;6.80;;;23.80;48.20;;;;;;5089307;28;20386;-66
2021/03/30 07:46:51;;;;;;;10.70;7.28;;;24.80;47.00;;;;;;5088401;28;20401;-60
2021/03/30 07:49:17;;;;;;;11.53;7.33;;;25.40;45.40;;;;;;5071535;28;20455;-67
2021/03/30 07:51:45;;;;;;;11.47;7.63;;;25.70;44.80;;;;;;5089636;28;20442;-66
2021/03/30 07:54:13;;;;;;;15.52;7.20;;;26.60;43.70;;;;;;5070135;28;20430;-67
2021/03/30 07:56:39;;;;;;;13.77;7.60;;;26.90;42.60;;;;;;5088712;28;20489;-67
2021/03/30 07:59:05;;;;;;;13.77;7.03;;;27.30;42.10;;;;;;5087960;28;20522;-67
2021/03/30 08:01:33;;;;;;;12.40;8.48;;;28.10;40.80;;;;;;5088993;28;20433;-67
2021/03/30 08:04:00;;;;;;;15.30;8.07;;;28.10;40.10;;;;;;5088656;28;20473;-68
2021/03/30 08:06:36;;;;;;;12.75;7.40;;;28.30;39.60;;;;;;5088616;28;20421;-66
2021/03/30 08:09:09;;;;;;;14.02;8.60;;;28.80;38.80;;;;;;5087898;28;20425;-68
2021/03/30 08:11:40;;;;;;;12.88;7.75;;;28.60;38.60;;;;;;5090019;28;20382;-67
2021/03/30 08:14:18;;;;;;;14.93;8.43;;;29.40;36.90;;;;;;5087628;28;20429;-66
2021/03/30 08:16:47;;;;;;;16.73;8.65;;;29.60;36.70;;;;;;5092382;28;20413;-66
2021/03/30 08:19:14;;;;;;;12.10;7.88;;;29.60;36.50;;;;;;5092553;28;20414;-66
2021/03/30 08:22:01;;;;;;;10.90;7.38;;;29.70;36.30;;;;;;5092805;28;20390;-66
2021/03/30 08:24:47;;;;;;;15.27;9.27;;;29.50;35.90;;;;;;5075987;28;20414;-67
2021/03/30 08:27:31;;;;;;;13.98;7.63;;;29.40;36.60;;;;;;5072508;28;20463;-66
2021/03/30 08:30:16;;;;;;;13.68;8.48;;;29.70;35.50;;;;;;5091072;28;20496;-66
2021/03/30 08:32:47;;;;;;;14.40;8.65;;;29.10;36.00;;;;;;5086240;28;20421;-65
2021/03/30 08:35:39;;;;;;;12.88;8.38;;;29.30;36.60;;;;;;5091378;28;20899;-68
2021/03/30 08:38:05;;;;;;;12.27;7.85;;;29.40;35.50;;;;;;5092436;28;20406;-67
2021/03/30 08:40:34;;;;;;;16.87;7.90;;;29.10;35.70;;;;;;5091778;28;20530;-68
2021/03/30 08:43:00;;;;;;;14.55;7.80;;;29.70;34.90;;;;;;5091647;28;20384;-65
2021/03/30 08:45:25;;;;;;;16.40;8.53;;;30.00;34.10;;;;;;5091663;28;20398;-66
2021/03/30 08:47:51;;;;;;;13.33;7.20;;;29.80;34.40;;;;;;5091343;28;20393;-66
2021/03/30 08:50:24;;;;;;;12.77;7.80;;;29.70;34.00;;;;;;5092876;28;20378;-66
2021/03/30 08:52:55;;;;;;;13.90;8.48;;;30.60;34.00;;;;;;5091921;28;20389;-60
2021/03/30 08:55:40;;;;;;;15.55;7.72;;;31.40;32.50;;;;;;5092758;28;20392;-65
2021/03/30 08:58:07;;;;;;;9.50;6.40;;;30.80;33.10;;;;;;5072886;28;20410;-65
2021/03/30 09:00:33;;;;;;;13.50;7.80;;;30.50;32.40;;;;;;5093033;28;20425;-65
2021/03/30 09:03:01;;;;;;;11.63;7.37;;;30.80;32.50;;;;;;5091013;28;20546;-64
2021/03/30 09:05:26;;;;;;;13.63;7.47;;;31.70;31.60;;;;;;5082039;28;20914;-65
2021/03/30 09:07:52;;;;;;;11.20;7.30;;;31.50;32.00;;;;;;5062027;28;20402;-60
2021/03/30 09:10:19;;;;;;;12.27;6.90;;;31.40;31.50;;;;;;5092280;28;20493;-66
2021/03/30 09:12:46;;;;;;;10.18;7.00;;;31.80;31.00;;;;;;5092663;28;20778;-65
2021/03/30 09:15:14;;;;;;;12.77;7.18;;;32.40;30.60;;;;;;5090032;28;20405;-63
2021/03/30 09:17:56;;;;;;;16.95;8.30;;;32.40;30.40;;;;;;5092222;28;20383;-64
2021/03/30 09:20:23;;;;;;;12.45;7.82;;;32.70;29.70;;;;;;5091815;28;20952;-62
2021/03/30 09:22:49;;;;;;;12.55;7.32;;;32.10;30.40;;;;;;5092099;28;20455;-65
2021/03/30 09:27:44;;;;;;;10.65;7.70;;;32.90;29.70;;;;;;5091510;28;20390;-65
2021/03/30 09:30:16;;;;;;;12.95;7.47;;;33.60;29.50;;;;;;5091486;28;21336;-67
2021/03/30 09:32:43;;;;;;;12.43;7.90;;;34.50;28.50;;;;;;5091147;28;20386;-60
2021/03/30 09:35:12;;;;;;;12.02;7.35;;;33.50;28.50;;;;;;5092044;28;20392;-64
2021/03/30 09:38:03;;;;;;;10.23;7.13;;;33.70;28.00;;;;;;5074281;28;20455;-65
2021/03/30 09:40:40;;;;;;;10.45;7.03;;;33.60;27.10;;;;;;5090735;28;20394;-64
2021/03/30 09:43:07;;;;;;;13.30;6.80;;;33.50;27.20;;;;;;5090257;28;20404;-64
2021/03/30 09:45:34;;;;;;;13.73;7.67;;;33.10;27.30;;;;;;5091624;28;20383;-63
2021/03/30 09:48:06;;;;;;;10.70;7.40;;;33.00;28.60;;;;;;5090860;28;20732;-63
2021/03/30 09:50:32;;;;;;;11.70;8.10;;;33.40;28.50;;;;;;5073703;28;20385;-64
2021/03/30 09:53:07;;;;;;;14.50;7.97;;;33.40;28.90;;;;;;5091648;28;20474;-64
2021/03/30 09:55:38;;;;;;;11.52;7.25;;;33.70;28.40;;;;;;5090280;28;20406;-64
2021/03/30 09:58:12;;;;;;;13.93;7.20;;;34.80;27.40;;;;;;5071308;28;20420;-64
2021/03/30 10:00:43;;;;;;;11.95;6.65;;;34.80;27.50;;;;;;5091770;28;20379;-63
2021/03/30 10:03:10;;;;;;;12.77;7.40;;;34.60;27.00;;;;;;5091367;28;20377;-64
2021/03/30 10:05:39;;;;;;;12.82;7.13;;;34.70;26.90;;;;;;5089006;28;20390;-64
2021/03/30 10:08:16;;;;;;;15.32;7.22;;;35.10;25.80;;;;;;5090418;28;20477;-63
2021/03/30 10:10:44;;;;;;;13.07;7.27;;;34.60;25.90;;;;;;5090768;28;20481;-64
2021/03/30 10:13:30;;;;;;;14.70;7.53;;;33.60;26.30;;;;;;5089682;28;20405;-64
2021/03/30 10:16:02;;;;;;;10.80;7.00;;;33.00;27.00;;;;;;5090666;28;20418;-64
2021/03/30 10:18:28;;;;;;;13.32;7.07;;;32.80;27.70;;;;;;5090344;28;20418;-63
2021/03/30 10:20:59;;;;;;;13.32;6.70;;;32.80;27.90;;;;;;5090833;28;20461;-59
2021/03/30 10:23:32;;;;;;;12.30;7.30;;;32.80;28.40;;;;;;5091829;28;20476;-63
2021/03/30 10:26:08;;;;;;;13.60;6.70;;;33.30;27.70;;;;;;5089318;28;20390;-63
2021/03/30 10:28:34;;;;;;;13.32;6.93;;;33.70;27.00;;;;;;5091433;28;20385;-63
2021/03/30 10:31:09;;;;;;;12.77;7.37;;;33.30;27.60;;;;;;5089175;28;20826;-63
2021/03/30 10:33:49;;;;;;;12.50;7.55;;;33.30;27.00;;;;;;5091158;28;20378;-63
2021/03/30 10:36:15;;;;;;;12.68;7.13;;;33.80;26.60;;;;;;5072303;28;20386;-64
2021/03/30 10:39:00;;;;;;;13.48;7.25;;;33.60;26.30;;;;;;5089753;28;20475;-63
2021/03/30 10:41:37;;;;;;;11.57;6.40;;;32.80;27.10;;;;;;5089511;28;20385;-64
2021/03/30 10:44:04;;;;;;;11.60;6.80;;;32.10;27.90;;;;;;5088357;28;20410;-64
2021/03/30 10:46:30;;;;;;;13.70;6.80;;;32.80;27.50;;;;;;5089638;28;20390;-65
2021/03/30 10:49:00;;;;;;;13.75;6.80;;;32.90;26.30;;;;;;5090242;28;20913;-64
2021/03/30 10:51:26;;;;;;;12.43;7.40;;;33.40;27.20;;;;;;5089513;28;20401;-65
2021/03/30 10:53:52;;;;;;;10.80;5.83;;;32.30;27.60;;;;;;5090509;28;20406;-66
2021/03/30 10:56:18;;;;;;;13.37;6.40;;;32.10;26.80;;;;;;5072114;28;20895;-65
2021/03/30 10:58:43;;;;;;;12.95;6.15;;;32.50;27.00;;;;;;5089259;28;20426;-65
2021/03/30 11:01:09;;;;;;;11.67;6.50;;;32.50;27.40;;;;;;5090099;28;20371;-65
2021/03/30 11:03:35;;;;;;;11.37;5.80;;;32.50;26.90;;;;;;5090266;28;20382;-64
2021/03/30 11:06:00;;;;;;;10.10;6.23;;;32.60;26.50;;;;;;5081611;28;20871;-63
2021/03/30 11:08:26;;;;;;;10.90;6.00;;;32.50;26.50;;;;;;5090395;28;21222;-65
2021/03/30 11:10:52;;;;;;;10.50;5.90;;;31.90;27.30;;;;;;5088850;28;20485;-65
2021/03/30 11:13:17;;;;;;;10.90;5.40;;;31.70;26.80;;;;;;5089409;28;20388;-66
2021/03/30 11:15:43;;;;;;;10.60;5.80;;;31.60;26.40;;;;;;5087947;28;20406;-65
2021/03/30 11:18:09;;;;;;;10.48;5.10;;;31.50;25.30;;;;;;5088258;28;20925;-65
2021/03/30 11:20:34;;;;;;;8.60;5.40;;;31.60;25.10;;;;;;5089946;28;20832;-65
2021/03/30 11:23:02;;;;;;;11.00;6.40;;;31.80;25.40;;;;;;5089452;28;20385;-65
2021/03/30 11:25:28;;;;;;;10.27;5.80;;;31.40;25.60;;;;;;5089017;28;20886;-66
2021/03/30 11:27:57;;;;;;;12.40;6.25;;;31.10;25.20;;;;;;5090156;28;20394;-59
2021/03/30 11:30:30;;;;;;;10.18;5.63;;;31.00;25.80;;;;;;5088638;28;20386;-64
2021/03/30 11:38:20;;;;;;;11.73;5.82;;;29.10;26.80;;;;;;5090005;28;20439;-65
2021/03/30 11:40:46;;;;;;;11.45;5.57;;;28.20;27.60;;;;;;5088653;28;20860;-65
2021/03/30 11:43:12;;;;;;;10.30;5.40;;;27.70;28.50;;;;;;5088895;28;20380;-59
2021/03/30 11:45:38;;;;;;;12.00;5.80;;;27.40;28.70;;;;;;5089857;28;20449;-59
2021/03/30 11:48:05;;;;;;;12.52;5.78;;;27.20;28.40;;;;;;5087675;28;20401;-66
2021/03/30 11:50:31;;;;;;;11.27;5.88;;;26.90;28.70;;;;;;5088276;28;20524;-66
2021/03/30 11:52:58;;;;;;;9.88;5.38;;;27.00;28.90;;;;;;5088700;28;20393;-60
2021/03/30 11:55:24;;;;;;;9.60;5.65;;;27.10;29.00;;;;;;5089828;28;20388;-66
2021/03/30 11:57:49;;;;;;;9.90;4.82;;;27.10;28.30;;;;;;5069975;28;20394;-65
2021/03/30 12:00:16;;;;;;;10.52;4.90;;;26.90;28.70;;;;;;5089225;28;20914;-66
2021/03/30 12:02:44;;;;;;;9.63;5.10;;;26.90;28.50;;;;;;5088851;28;20401;-66
2021/03/30 12:05:10;;;;;;;8.43;4.20;;;26.80;28.10;;;;;;5083035;28;20430;-65
2021/03/30 12:07:36;;;;;;;7.25;3.90;;;26.70;26.80;;;;;;5089934;28;20445;-66
2021/03/30 12:10:03;;;;;;;10.23;4.60;;;26.70;27.00;;;;;;5087833;28;20383;-64
2021/03/30 12:12:30;;;;;;;9.00;4.50;;;26.80;28.50;;;;;;5088387;28;20556;-66
2021/03/30 12:14:56;;;;;;;9.30;5.35;;;26.90;28.90;;;;;;5089179;28;20409;-66
2021/03/30 12:17:21;;;;;;;11.20;5.50;;;27.00;28.80;;;;;;5089055;28;20862;-66
2021/03/30 12:19:47;;;;;;;11.20;5.33;;;26.80;28.80;;;;;;5088276;28;20861;-66
2021/03/30 12:22:13;;;;;;;12.70;5.00;;;26.80;29.00;;;;;;5087135;28;20394;-67
2021/03/30 12:24:38;;;;;;;7.85;4.43;;;26.80;28.60;;;;;;5071248;28;20451;-67
2021/03/30 12:27:11;;;;;;;8.80;4.40;;;26.90;27.90;;;;;;5087088;28;20437;-66
2021/03/30 12:29:37;;;;;;;9.93;4.60;;;26.80;27.10;;;;;;5089159;28;20792;-65
2021/03/30 12:32:04;;;;;;;7.80;4.60;;;26.80;26.70;;;;;;5087727;28;20398;-66
2021/03/30 12:34:30;;;;;;;7.57;4.00;;;26.70;27.10;;;;;;5087474;28;20457;-65
2021/03/30 12:36:56;;;;;;;9.65;4.38;;;26.60;27.70;;;;;;5089041;28;20398;-59
2021/03/30 12:39:21;;;;;;;7.95;3.67;;;26.80;27.90;;;;;;5088581;28;20879;-64
2021/03/30 12:41:47;;;;;;;10.47;4.50;;;26.90;26.70;;;;;;5070355;28;20967;-66
2021/03/30 12:44:13;;;;;;;8.57;4.10;;;26.80;27.30;;;;;;5086826;28;20459;-66
2021/03/30 12:46:38;;;;;;;8.70;4.00;;;26.80;27.30;;;;;;5088886;28;20381;-66
2021/03/30 12:49:04;;;;;;;8.40;4.80;;;26.80;27.30;;;;;;5087214;28;20394;-65
2021/03/30 12:51:30;;;;;;;10.95;5.10;;;26.70;27.10;;;;;;5088791;28;20435;-67
2021/03/30 12:53:57;;;;;;;8.50;4.70;;;26.80;27.10;;;;;;5087722;28;20402;-60
2021/03/30 12:56:23;;;;;;;7.43;3.90;;;26.90;27.60;;;;;;5088839;28;20481;-67
2021/03/30 12:58:49;;;;;;;11.07;3.45;;;26.90;27.30;;;;;;5087738;28;20505;-66
2021/03/30 13:01:14;;;;;;;7.75;3.60;;;27.20;25.50;;;;;;5090070;28;20435;-67
2021/03/30 13:03:40;;;;;;;8.43;3.63;;;27.30;25.70;;;;;;5091093;28;20489;-66